createdAt,value
2018-08-17T00:01:02.541Z,93.40
2018-08-17T00:03:31.765Z,93.40
2018-08-17T00:06:04.243Z,93.40
2018-08-17T00:08:37.240Z,93.70
2018-08-17T00:11:09.461Z,93.80
2018-08-17T00:13:39.687Z,93.80
2018-08-17T00:16:10.990Z,94.00
2018-08-17T00:18:47.561Z,94.20
2018-08-17T00:21:19.563Z,94.40
2018-08-17T00:23:50.280Z,95.00
2018-08-17T00:26:20.236Z,95.60
2018-08-17T00:29:07.005Z,96.30
2018-08-17T00:31:54.535Z,96.80
2018-08-17T00:34:24.440Z,97.40
2018-08-17T00:36:53.400Z,98.00
2018-08-17T00:39:22.585Z,98.50
2018-08-17T00:41:51.725Z,98.70
2018-08-17T00:44:21.601Z,98.90
2018-08-17T00:46:50.941Z,99.10
2018-08-17T00:49:22.058Z,99.00
2018-08-17T00:51:51.117Z,98.90
2018-08-17T00:54:20.389Z,99.20
2018-08-17T00:56:49.675Z,98.70
2018-08-17T00:59:24.449Z,98.70
2018-08-17T01:01:55.543Z,98.70
2018-08-17T01:04:31.353Z,98.70
2018-08-17T01:07:00.885Z,98.70
2018-08-17T01:09:30.231Z,98.80
2018-08-17T01:12:02.641Z,99.00
2018-08-17T01:14:31.880Z,99.10
2018-08-17T01:17:16.172Z,99.30
2018-08-17T01:19:50.394Z,99.30
2018-08-17T01:22:21.351Z,99.40
2018-08-17T01:24:51.382Z,99.70
2018-08-17T01:27:20.319Z,99.90
2018-08-17T01:29:50.245Z,99.80
2018-08-17T01:32:19.207Z,99.90
2018-08-17T01:34:48.823Z,99.90
2018-08-17T01:37:17.797Z,99.90
2018-08-17T01:39:46.663Z,99.90
2018-08-17T01:42:16.202Z,99.90
2018-08-17T01:44:45.682Z,99.90
2018-08-17T01:47:15.757Z,99.90
2018-08-17T01:49:44.696Z,99.90
2018-08-17T01:52:15.290Z,99.90
2018-08-17T01:54:44.291Z,99.90
2018-08-17T01:57:13.229Z,99.90
2018-08-17T01:59:42.226Z,99.90
2018-08-17T02:02:11.217Z,99.90
2018-08-17T02:04:40.195Z,99.90
2018-08-17T02:07:10.259Z,99.90
2018-08-17T02:09:39.526Z,99.90
2018-08-17T02:12:08.826Z,99.90
2018-08-17T02:14:38.899Z,99.90
2018-08-17T02:17:08.446Z,99.90
2018-08-17T02:19:37.338Z,99.90
2018-08-17T02:23:36.185Z,99.90
2018-08-17T02:26:05.080Z,99.90
2018-08-17T02:28:34.614Z,99.90
2018-08-17T02:31:04.515Z,99.90
2018-08-17T02:33:35.309Z,99.90
2018-08-17T02:36:42.684Z,99.90
2018-08-17T02:40:30.833Z,99.90
2018-08-17T02:43:04.658Z,99.90
2018-08-17T02:45:34.998Z,99.90
2018-08-17T02:48:05.554Z,99.90
2018-08-17T02:50:35.807Z,99.90
2018-08-17T02:53:06.989Z,99.90
2018-08-17T02:55:38.092Z,99.90
2018-08-17T02:59:37.692Z,99.90
2018-08-17T03:02:17.382Z,99.90
2018-08-17T03:04:47.544Z,99.90
2018-08-17T03:07:18.718Z,99.90
2018-08-17T03:09:49.531Z,99.90
2018-08-17T03:12:19.490Z,99.90
2018-08-17T03:14:52.277Z,99.90
2018-08-17T03:17:22.406Z,99.90
2018-08-17T03:19:54.943Z,99.90
2018-08-17T03:22:25.691Z,99.90
2018-08-17T03:24:55.830Z,99.90
2018-08-17T03:27:25.467Z,99.90
2018-08-17T03:29:55.876Z,99.90
2018-08-17T03:32:25.168Z,99.90
2018-08-17T03:34:55.514Z,99.90
2018-08-17T03:37:25.791Z,99.90
2018-08-17T03:39:55.427Z,99.90
2018-08-17T03:42:25.540Z,99.90
2018-08-17T03:44:56.795Z,99.90
2018-08-17T03:47:29.258Z,99.90
2018-08-17T03:50:00.417Z,99.90
2018-08-17T03:52:31.752Z,99.90
2018-08-17T03:55:02.391Z,99.90
2018-08-17T03:57:32.673Z,99.90
2018-08-17T04:00:01.834Z,99.90
2018-08-17T04:02:35.644Z,99.90
2018-08-17T04:05:05.941Z,99.90
2018-08-17T04:07:37.888Z,99.90
2018-08-17T04:10:08.539Z,99.90
2018-08-17T04:12:38.551Z,99.90
2018-08-17T04:15:11.964Z,99.90
2018-08-17T04:17:49.348Z,99.90
2018-08-17T04:20:21.610Z,99.90
2018-08-17T04:22:53.778Z,99.90
2018-08-17T04:25:22.773Z,99.90
2018-08-17T04:27:52.897Z,99.90
2018-08-17T04:30:22.764Z,99.90
2018-08-17T04:32:54.285Z,99.90
2018-08-17T04:35:23.260Z,99.90
2018-08-17T04:37:52.438Z,99.90
2018-08-17T04:40:21.589Z,99.90
2018-08-17T04:42:50.529Z,99.90
2018-08-17T04:45:20.812Z,99.90
2018-08-17T04:47:49.934Z,99.90
2018-08-17T04:50:18.821Z,99.90
2018-08-17T04:52:47.838Z,99.90
2018-08-17T04:55:17.572Z,99.90
2018-08-17T04:57:46.512Z,99.90
2018-08-17T05:00:15.589Z,99.90
2018-08-17T05:02:44.833Z,99.90
2018-08-17T05:05:13.683Z,99.90
2018-08-17T05:07:42.853Z,99.90
2018-08-17T05:10:13.963Z,99.90
2018-08-17T05:12:42.885Z,99.90
2018-08-17T05:15:17.305Z,99.90
2018-08-17T05:17:47.768Z,99.90
2018-08-17T05:20:17.419Z,99.90
2018-08-17T05:22:57.844Z,99.90
2018-08-17T05:25:29.700Z,99.90
2018-08-17T05:27:58.676Z,99.90
2018-08-17T05:30:33.051Z,99.90
2018-08-17T05:33:04.079Z,99.90
2018-08-17T05:35:33.020Z,99.90
2018-08-17T05:38:01.900Z,99.90
2018-08-17T05:40:31.666Z,99.90
2018-08-17T05:43:00.752Z,99.90
2018-08-17T05:45:30.201Z,99.90
2018-08-17T05:47:59.079Z,99.90
2018-08-17T05:50:32.383Z,99.90
2018-08-17T05:53:02.020Z,99.90
2018-08-17T05:55:33.641Z,99.90
2018-08-17T05:58:02.665Z,99.90
2018-08-17T06:00:32.213Z,99.90
2018-08-17T06:03:01.777Z,99.90
2018-08-17T06:05:33.047Z,99.90
2018-08-17T06:08:02.153Z,99.90
2018-08-17T06:10:33.635Z,99.90
2018-08-17T06:13:02.653Z,99.90
2018-08-17T06:15:32.230Z,99.90
2018-08-17T06:18:01.356Z,99.90
2018-08-17T06:20:30.282Z,99.90
2018-08-17T06:22:59.642Z,99.90
2018-08-17T06:25:29.357Z,99.90
2018-08-17T06:27:59.254Z,99.90
2018-08-17T06:30:28.546Z,99.90
2018-08-17T06:32:57.951Z,99.90
2018-08-17T06:35:27.820Z,99.90
2018-08-17T06:37:56.809Z,99.90
2018-08-17T06:40:26.077Z,99.90
2018-08-17T06:42:55.336Z,99.90
2018-08-17T06:45:24.740Z,99.90
2018-08-17T06:47:55.322Z,99.90
2018-08-17T06:50:24.479Z,99.90
2018-08-17T06:52:53.406Z,99.90
2018-08-17T06:55:22.280Z,99.90
2018-08-17T06:57:52.083Z,99.90
2018-08-17T07:00:26.500Z,99.90
2018-08-17T07:02:55.428Z,99.90
2018-08-17T07:05:26.415Z,99.90
2018-08-17T07:07:55.426Z,99.90
2018-08-17T07:10:25.084Z,99.90
2018-08-17T07:12:54.356Z,99.90
2018-08-17T07:15:24.349Z,99.90
2018-08-17T07:17:53.476Z,99.90
2018-08-17T07:20:22.452Z,99.90
2018-08-17T07:22:52.528Z,99.90
2018-08-17T07:25:21.790Z,99.90
2018-08-17T07:27:52.433Z,99.90
2018-08-17T07:30:22.334Z,99.90
2018-08-17T07:32:51.257Z,99.90
2018-08-17T07:35:20.324Z,99.90
2018-08-17T07:37:50.603Z,99.90
2018-08-17T07:40:20.360Z,99.90
2018-08-17T07:42:49.572Z,99.90
2018-08-17T07:45:19.847Z,99.90
2018-08-17T07:47:55.205Z,99.90
2018-08-17T07:50:36.206Z,99.90
2018-08-17T07:53:07.644Z,99.90
2018-08-17T07:55:38.187Z,99.90
2018-08-17T07:58:08.340Z,99.90
2018-08-17T08:00:40.085Z,99.90
2018-08-17T08:03:10.507Z,99.90
2018-08-17T08:05:43.474Z,99.90
2018-08-17T08:08:12.618Z,99.90
2018-08-17T08:10:45.614Z,99.90
2018-08-17T08:13:15.712Z,99.90
2018-08-17T08:15:44.782Z,99.90
2018-08-17T08:18:14.241Z,99.90
2018-08-17T08:20:44.756Z,99.90
2018-08-17T08:23:22.273Z,99.90
2018-08-17T08:25:53.212Z,99.90
2018-08-17T08:28:22.539Z,99.90
2018-08-17T08:30:51.878Z,99.90
2018-08-17T08:33:21.406Z,99.90
2018-08-17T08:35:50.992Z,99.90
2018-08-17T08:38:20.243Z,99.90
2018-08-17T08:40:49.444Z,99.90
2018-08-17T08:43:18.661Z,99.90
2018-08-17T08:45:47.818Z,99.90
2018-08-17T08:48:17.232Z,99.90
2018-08-17T08:50:46.631Z,99.90
2018-08-17T08:53:15.767Z,99.90
2018-08-17T08:55:46.533Z,99.90
2018-08-17T08:58:16.433Z,99.90
2018-08-17T09:00:47.387Z,99.90
2018-08-17T09:03:18.347Z,99.90
2018-08-17T09:05:47.376Z,99.90
2018-08-17T09:08:16.806Z,99.90
2018-08-17T09:10:46.052Z,99.90
2018-08-17T09:13:15.621Z,99.90
2018-08-17T09:15:46.100Z,99.90
2018-08-17T09:18:15.273Z,99.90
2018-08-17T09:20:44.621Z,99.90
2018-08-17T09:23:14.059Z,99.90
2018-08-17T09:25:43.708Z,99.90
2018-08-17T09:28:14.245Z,99.90
2018-08-17T09:30:43.298Z,99.90
2018-08-17T09:33:13.077Z,99.90
2018-08-17T09:35:42.272Z,99.90
2018-08-17T09:38:11.413Z,99.90
2018-08-17T09:40:44.609Z,99.90
2018-08-17T09:43:15.329Z,99.90
2018-08-17T09:45:44.787Z,99.90
2018-08-17T09:48:14.016Z,99.90
2018-08-17T09:50:44.287Z,99.90
2018-08-17T09:53:13.910Z,99.90
2018-08-17T09:55:43.528Z,99.90
2018-08-17T09:58:14.198Z,99.90
2018-08-17T10:00:48.271Z,99.90
2018-08-17T10:03:22.359Z,99.90
2018-08-17T10:05:56.042Z,99.90
2018-08-17T10:08:31.180Z,99.90
2018-08-17T10:11:02.613Z,99.90
2018-08-17T10:13:32.582Z,99.90
2018-08-17T10:16:03.950Z,99.90
2018-08-17T10:18:39.346Z,99.90
2018-08-17T10:21:10.189Z,99.90
2018-08-17T10:23:41.313Z,99.90
2018-08-17T10:26:13.075Z,99.90
2018-08-17T10:28:47.695Z,99.90
2018-08-17T10:31:26.816Z,99.90
2018-08-17T10:33:56.371Z,99.90
2018-08-17T10:36:27.081Z,99.90
2018-08-17T10:38:57.480Z,99.90
2018-08-17T10:41:27.399Z,99.40
2018-08-17T10:43:58.365Z,98.60
2018-08-17T10:46:27.604Z,98.00
2018-08-17T10:48:56.822Z,97.10
2018-08-17T10:51:26.490Z,98.30
2018-08-17T10:53:57.167Z,97.60
2018-08-17T10:56:30.347Z,96.30
2018-08-17T10:59:01.037Z,97.30
2018-08-17T11:01:31.244Z,97.40
2018-08-17T11:04:01.026Z,98.70
2018-08-17T11:06:30.256Z,99.20
2018-08-17T11:08:59.744Z,98.60
2018-08-17T11:11:31.671Z,98.50
2018-08-17T11:14:03.723Z,98.70
2018-08-17T11:16:33.446Z,99.90
2018-08-17T11:19:23.378Z,99.90
2018-08-17T11:22:02.121Z,98.80
2018-08-17T11:24:33.730Z,98.20
2018-08-17T11:27:04.219Z,96.50
2018-08-17T11:29:34.822Z,95.90
2018-08-17T11:32:10.504Z,95.40
2018-08-17T11:34:45.191Z,95.40
2018-08-17T11:37:19.346Z,96.60
2018-08-17T11:40:02.640Z,97.90
2018-08-17T11:42:54.936Z,98.30
2018-08-17T11:45:26.102Z,97.40
2018-08-17T11:47:59.134Z,97.90
2018-08-17T11:50:34.442Z,98.00
2018-08-17T11:53:04.418Z,96.90
2018-08-17T11:55:34.691Z,95.80
2018-08-17T11:58:08.410Z,96.00
2018-08-17T12:00:40.116Z,95.70
2018-08-17T12:03:12.273Z,96.60
2018-08-17T12:05:45.583Z,97.50
2018-08-17T12:08:14.867Z,98.20
2018-08-17T12:10:46.114Z,98.20
2018-08-17T12:13:17.849Z,98.40
2018-08-17T12:15:53.421Z,98.30
2018-08-17T12:18:24.254Z,97.40
2018-08-17T12:20:53.775Z,97.20
2018-08-17T12:23:25.248Z,97.10
2018-08-17T12:26:01.160Z,97.40
2018-08-17T12:28:31.489Z,98.70
2018-08-17T12:31:02.187Z,98.80
2018-08-17T12:33:35.417Z,97.80
2018-08-17T12:36:18.449Z,97.50
2018-08-17T12:38:59.781Z,98.60
2018-08-17T12:41:32.187Z,99.90
2018-08-17T12:44:01.681Z,99.60
2018-08-17T12:46:33.200Z,99.90
2018-08-17T12:49:02.637Z,99.90
2018-08-17T12:51:33.443Z,99.90
2018-08-17T12:54:05.130Z,99.10
2018-08-17T12:56:34.814Z,99.50
2018-08-17T12:59:04.679Z,99.80
2018-08-17T13:01:34.263Z,99.10
2018-08-17T13:04:03.784Z,98.30
2018-08-17T13:06:33.881Z,98.30
2018-08-17T13:09:10.420Z,98.10
2018-08-17T13:12:01.610Z,98.90
2018-08-17T13:14:35.079Z,99.30
2018-08-17T13:17:38.502Z,99.30
2018-08-17T13:20:21.819Z,98.90
2018-08-17T13:26:34.375Z,94.70
2018-08-17T13:29:20.709Z,93.00
2018-08-17T13:31:53.395Z,91.40
2018-08-17T13:34:23.975Z,91.80
2018-08-17T13:36:55.601Z,92.50
2018-08-17T13:39:29.311Z,91.90
2018-08-17T13:42:03.405Z,91.80
2018-08-17T13:44:33.709Z,90.00
2018-08-17T13:47:03.954Z,84.50
2018-08-17T13:49:53.264Z,84.40
2018-08-17T13:53:00.197Z,83.30
2018-08-17T13:55:52.497Z,84.40
2018-08-17T13:58:23.978Z,86.70
2018-08-17T14:00:58.687Z,86.50
2018-08-17T14:03:29.488Z,88.60
2018-08-17T14:06:24.193Z,86.80
2018-08-17T14:08:53.786Z,85.60
2018-08-17T14:11:25.329Z,85.00
2018-08-17T14:13:56.400Z,84.40
2018-08-17T14:16:28.944Z,85.10
2018-08-17T14:19:00.054Z,86.40
2018-08-17T14:21:30.884Z,85.60
2018-08-17T14:24:03.866Z,84.70
2018-08-17T14:26:43.390Z,83.60
2018-08-17T14:29:15.789Z,82.90
2018-08-17T14:31:45.548Z,83.10
2018-08-17T14:34:18.115Z,83.80
2018-08-17T14:39:53.226Z,86.90
2018-08-17T14:42:22.763Z,86.50
2018-08-17T14:44:52.410Z,87.50
2018-08-17T14:47:22.399Z,86.70
2018-08-17T14:49:53.740Z,88.50
2018-08-17T14:52:26.308Z,88.30
2018-08-17T14:55:01.995Z,87.80
2018-08-17T14:57:39.887Z,88.70
2018-08-17T15:00:15.330Z,87.20
2018-08-17T15:02:45.760Z,84.30
2018-08-17T15:05:16.180Z,79.50
2018-08-17T15:07:46.588Z,77.30
2018-08-17T15:10:18.966Z,77.70
2018-08-17T15:12:50.275Z,77.00
2018-08-17T15:15:21.778Z,77.80
2018-08-17T15:17:51.750Z,77.80
2018-08-17T15:20:23.668Z,77.50
2018-08-17T15:22:57.654Z,75.30
2018-08-17T15:25:27.422Z,71.50
2018-08-17T15:28:17.081Z,65.50
2018-08-17T15:30:49.972Z,64.80
2018-08-17T15:33:19.776Z,64.70
2018-08-17T15:35:50.402Z,66.10
2018-08-17T15:38:20.557Z,65.60
2018-08-17T15:40:50.787Z,63.80
2018-08-17T15:43:25.750Z,64.50
2018-08-17T15:46:14.858Z,64.30
2018-08-17T15:48:51.979Z,64.70
2018-08-17T15:51:23.848Z,68.70
2018-08-17T15:54:00.257Z,69.30
2018-08-17T15:56:29.963Z,71.10
2018-08-17T15:59:02.785Z,71.10
2018-08-17T16:01:32.686Z,70.90
2018-08-17T16:04:03.791Z,70.90
2018-08-17T16:06:58.367Z,70.80
2018-08-17T16:09:46.341Z,72.00
2018-08-17T16:12:38.601Z,73.40
2018-08-17T16:16:53.193Z,73.50
2018-08-17T16:19:22.612Z,72.80
2018-08-17T16:21:53.206Z,72.20
2018-08-17T16:24:25.732Z,72.20
2018-08-17T16:26:55.328Z,72.70
2018-08-17T16:29:24.965Z,72.60
2018-08-17T16:31:55.631Z,73.30
2018-08-17T16:34:27.179Z,72.40
2018-08-17T16:37:11.582Z,73.10
2018-08-17T16:39:48.808Z,72.60
2018-08-17T16:42:32.233Z,71.70
2018-08-17T16:45:02.248Z,71.80
2018-08-17T16:47:41.904Z,72.50
2018-08-17T16:50:15.597Z,72.60
2018-08-17T16:52:55.629Z,72.40
2018-08-17T16:55:55.194Z,72.30
2018-08-17T17:01:07.227Z,72.20
2018-08-17T17:03:43.138Z,70.30
2018-08-17T17:06:19.543Z,69.30
2018-08-17T17:09:00.340Z,68.80
2018-08-17T17:11:33.613Z,68.50
2018-08-17T17:14:08.615Z,67.20
2018-08-17T17:16:49.540Z,68.30
2018-08-17T17:23:23.127Z,72.20
2018-08-17T17:26:04.375Z,68.60
2018-08-17T17:28:38.434Z,68.10
2018-08-17T17:31:09.323Z,67.70
2018-08-17T17:33:46.341Z,68.10
2018-08-17T17:36:24.207Z,66.50
2018-08-17T17:38:55.247Z,65.20
2018-08-17T17:41:28.353Z,61.80
2018-08-17T17:44:03.476Z,61.10
2018-08-17T17:46:35.459Z,61.30
2018-08-17T17:49:06.623Z,61.30
2018-08-17T17:51:37.771Z,60.60
2018-08-17T17:54:11.116Z,61.50
2018-08-17T17:57:04.916Z,61.10
2018-08-17T17:59:38.279Z,60.90
2018-08-17T18:02:15.578Z,60.90
2018-08-17T18:04:56.598Z,59.30
2018-08-17T18:07:37.863Z,59.40
2018-08-17T18:10:11.641Z,59.90
2018-08-17T18:12:45.774Z,59.80
2018-08-17T18:15:17.636Z,59.10
2018-08-17T18:17:51.538Z,60.40
2018-08-17T18:20:23.180Z,60.60
2018-08-17T18:22:57.619Z,59.50
2018-08-17T18:25:27.711Z,59.90
2018-08-17T18:27:59.351Z,59.90
2018-08-17T18:30:31.216Z,60.50
2018-08-17T18:33:02.508Z,60.90
2018-08-17T18:35:35.040Z,61.90
2018-08-17T18:38:04.710Z,62.90
2018-08-17T18:40:35.275Z,61.80
2018-08-17T18:43:12.694Z,62.70
2018-08-17T18:45:43.209Z,62.40
2018-08-17T18:48:21.318Z,63.30
2018-08-17T18:51:09.591Z,63.10
2018-08-17T18:53:42.123Z,63.10
2018-08-17T18:56:17.530Z,63.80
2018-08-17T18:59:11.817Z,64.10
2018-08-17T19:01:48.276Z,64.60
2018-08-17T19:04:22.314Z,65.30
2018-08-17T19:06:58.392Z,64.70
2018-08-17T19:09:49.333Z,64.90
2018-08-17T19:12:35.652Z,65.30
2018-08-17T19:15:21.909Z,66.30
2018-08-17T19:17:52.700Z,65.80
2018-08-17T19:20:28.358Z,66.30
2018-08-17T19:23:11.534Z,66.00
2018-08-17T19:25:48.409Z,66.10
2018-08-17T19:28:20.308Z,65.50
2018-08-17T19:30:54.264Z,66.20
2018-08-17T19:33:25.709Z,66.30
2018-08-17T19:36:08.517Z,66.50
2018-08-17T19:41:30.801Z,67.20
2018-08-17T19:44:08.425Z,66.30
2018-08-17T19:49:24.273Z,67.80
2018-08-17T19:51:56.349Z,68.50
2018-08-17T19:54:33.480Z,69.10
2018-08-17T19:57:09.435Z,70.10
2018-08-17T19:59:51.894Z,70.60
2018-08-17T20:02:25.532Z,71.60
2018-08-17T20:04:58.885Z,72.60
2018-08-17T20:07:31.909Z,73.70
2018-08-17T20:10:03.382Z,74.40
2018-08-17T20:12:50.457Z,75.30
2018-08-17T20:15:34.729Z,76.10
2018-08-17T20:18:06.518Z,76.70
2018-08-17T20:20:38.768Z,76.70
2018-08-17T20:23:09.736Z,76.00
2018-08-17T20:25:39.516Z,76.50
2018-08-17T20:28:09.664Z,76.80
2018-08-17T20:30:46.733Z,77.10
2018-08-17T20:33:22.267Z,77.90
2018-08-17T20:35:56.415Z,78.30
2018-08-17T20:38:28.528Z,79.40
2018-08-17T20:41:02.599Z,79.20
2018-08-17T20:43:36.730Z,79.50
2018-08-17T20:46:09.258Z,80.60
2018-08-17T20:48:46.631Z,81.50
2018-08-17T20:51:25.400Z,82.30
2018-08-17T20:53:59.204Z,82.70
2018-08-17T20:56:29.337Z,83.20
2018-08-17T20:59:02.884Z,83.00
2018-08-17T21:01:36.166Z,84.50
2018-08-17T21:04:08.331Z,83.30
2018-08-17T21:06:40.207Z,82.80
2018-08-17T21:09:11.753Z,82.40
2018-08-17T21:11:53.788Z,80.80
2018-08-17T21:19:06.513Z,83.20
2018-08-17T21:21:51.618Z,84.10
2018-08-17T21:24:24.658Z,85.80
2018-08-17T21:27:03.436Z,87.10
2018-08-17T21:29:40.047Z,86.30
2018-08-17T21:32:10.224Z,86.20
2018-08-17T21:34:43.515Z,86.30
2018-08-17T21:37:23.271Z,86.90
2018-08-17T21:39:54.202Z,88.20
2018-08-17T21:42:26.543Z,87.10
2018-08-17T21:44:57.174Z,86.70
2018-08-17T21:47:29.661Z,86.00
2018-08-17T21:50:23.205Z,87.40
2018-08-17T21:52:55.644Z,87.90
2018-08-17T21:55:25.933Z,89.10
2018-08-17T21:57:57.850Z,89.50
2018-08-17T22:00:29.824Z,90.20
2018-08-17T22:03:03.789Z,90.70
2018-08-17T22:05:36.090Z,90.90
2018-08-17T22:08:08.263Z,91.70
2018-08-17T22:10:51.735Z,92.50
2018-08-17T22:13:36.382Z,93.00
2018-08-17T22:16:13.895Z,93.60
2018-08-17T22:18:47.130Z,94.10
2018-08-17T22:21:25.310Z,94.60
2018-08-17T22:23:57.227Z,95.20
2018-08-17T22:26:36.778Z,95.60
2018-08-17T22:29:07.081Z,95.80
2018-08-17T22:31:40.713Z,96.00
2018-08-17T22:34:12.181Z,96.30
2018-08-17T22:36:42.282Z,96.70
2018-08-17T22:39:13.174Z,96.90
2018-08-17T22:41:44.441Z,97.10
2018-08-17T22:44:20.254Z,96.90
2018-08-17T22:47:01.937Z,96.80
2018-08-17T22:49:33.287Z,97.00
2018-08-17T22:52:04.605Z,97.20
2018-08-17T22:54:51.561Z,97.60
2018-08-17T22:57:26.242Z,97.70
2018-08-17T23:00:13.051Z,97.80
2018-08-17T23:02:53.516Z,97.90
2018-08-17T23:05:28.397Z,97.90
2018-08-17T23:07:58.788Z,98.10
2018-08-17T23:10:29.541Z,98.00
2018-08-17T23:13:00.261Z,98.30
2018-08-17T23:15:31.311Z,98.50
2018-08-17T23:18:07.211Z,98.80
2018-08-17T23:20:40.331Z,99.10
2018-08-17T23:23:12.655Z,99.30
2018-08-17T23:25:43.539Z,99.40
2018-08-17T23:28:14.504Z,99.70
2018-08-17T23:30:45.829Z,99.90
2018-08-17T23:33:15.892Z,99.90
2018-08-17T23:35:49.286Z,99.90
2018-08-17T23:38:21.228Z,99.90
2018-08-17T23:40:54.748Z,99.90
2018-08-17T23:43:24.620Z,99.90
2018-08-17T23:45:57.408Z,99.90
2018-08-17T23:51:28.588Z,99.90
2018-08-17T23:53:59.891Z,99.90
2018-08-17T23:56:32.634Z,99.90
2018-08-17T23:59:02.408Z,99.90
